WetterOnline ( https://www.wetteronline.de )

Wetter aktuell Lohbarbek

Aktuelles Wetter: Itzehoe (26m)

6-stündlich | Neueste Meldungen
Ortszeit Temperatur Wetter
So, 25.08. 8:00 16.8° C wolkenlos
So, 25.08. 2:00 17.5° C wolkenlos
Sa, 24.08. 20:00 23.3° C wolkenlos
Sa, 24.08. 14:00 25.9° C wolkenlos
Sa, 24.08. 8:00 16.3° C fast wolkenlos
Sa, 24.08. 2:00 14.1° C wolkig
Fr, 23.08. 20:00 21.2° C wolkig
Fr, 23.08. 14:00 23.3° C leicht bewölkt
Ortszeit Temperatur Wetter
So, 25.08. 13:00 26.9° C wolkig
So, 25.08. 12:50 26.9° C wolkig
So, 25.08. 12:40 26.5° C bewölkt
So, 25.08. 12:30 26.5° C bewölkt
So, 25.08. 12:20 26.5° C bewölkt
So, 25.08. 12:10 26.4° C wolkig
So, 25.08. 12:00 26.1° C leicht bewölkt
So, 25.08. 11:30 26.2° C wolkenlos
So, 25.08. 11:00 24.8° C wolkenlos
So, 25.08. 10:30 24.0° C wolkenlos
So, 25.08. 10:00 23.1° C wolkenlos
Ortszeit Relative Feuchte Sichtweite
So, 25.08. 8:00 86% 30 km
So, 25.08. 2:00 83% 35 km
Sa, 24.08. 20:00 60% 45 km
Sa, 24.08. 14:00 51% 40 km
Sa, 24.08. 8:00 96% 12 km
Sa, 24.08. 2:00 97% 10 km
Fr, 23.08. 20:00 68% 65 km
Fr, 23.08. 14:00 46% >70 km
Ortszeit Relative Feuchte Sichtweite
So, 25.08. 13:00 49% 65 km
So, 25.08. 12:50 49% -
So, 25.08. 12:40 50% -
So, 25.08. 12:30 51% 40 km
So, 25.08. 12:20 51% -
So, 25.08. 12:10 51% -
So, 25.08. 12:00 52% 35 km
So, 25.08. 11:30 55% 40 km
So, 25.08. 11:00 59% >70 km
So, 25.08. 10:30 60% 45 km
So, 25.08. 10:00 62% 45 km
Ortszeit Niederschlagsmenge Niederschlagsart
So, 25.08. 8:00 0.0 l/m2 in 12 Std. -
So, 25.08. 2:00 0.0 l/m2 in 6 Std. -
Sa, 24.08. 20:00 0.0 l/m2 in 12 Std. -
Sa, 24.08. 14:00 0.0 l/m2 in 6 Std. -
Sa, 24.08. 8:00 0.0 l/m2 in 12 Std. -
Sa, 24.08. 2:00 0.0 l/m2 in 6 Std. -
Fr, 23.08. 20:00 0.0 l/m2 in 12 Std. -
Fr, 23.08. 14:00 0.0 l/m2 in 6 Std. -
Ortszeit Niederschlagsmenge Niederschlagsart
So, 25.08. 13:00 0.0 l/m2 in 1 Std. -
So, 25.08. 12:50 keine Meldung -
So, 25.08. 12:40 keine Meldung -
So, 25.08. 12:30 0.0 l/m2 in 1 Std. -
So, 25.08. 12:20 keine Meldung -
So, 25.08. 12:10 keine Meldung -
So, 25.08. 12:00 0.0 l/m2 in 1 Std. -
So, 25.08. 11:30 0.0 l/m2 in 1 Std. -
So, 25.08. 11:00 0.0 l/m2 in 1 Std. -
So, 25.08. 10:30 0.0 l/m2 in 1 Std. -
So, 25.08. 10:00 0.0 l/m2 in 1 Std. -
Ortszeit Stärke Spitze Richtung
km/h Bft. km/h Grad Sektor
So, 25.08. 8:00 2 1 15 10° N
So, 25.08. 2:00 7 2 25 90° O
Sa, 24.08. 20:00 13 3 28 90° O
Sa, 24.08. 14:00 11 2 25 90° O
Sa, 24.08. 8:00 6 1 7 70° O
Sa, 24.08. 2:00 4 1 7 50° NO
Fr, 23.08. 20:00 7 2 18 340° N
Fr, 23.08. 14:00 7 2 22 250° W
Ortszeit Stärke Spitze Richtung
km/h Bft. km/h Grad Sektor
So, 25.08. 13:00 11 2 22 100° O
So, 25.08. 12:50 11 2 - 100° O
So, 25.08. 12:40 11 2 - 100° O
So, 25.08. 12:30 11 2 22 90° O
So, 25.08. 12:20 11 2 - 90° O
So, 25.08. 12:10 9 2 - 100° O
So, 25.08. 12:00 11 2 20 90° O
So, 25.08. 11:30 7 2 15 110° O
So, 25.08. 11:00 7 2 14 80° O
So, 25.08. 10:30 7 2 14 90° O
So, 25.08. 10:00 7 2 14 120° SO
Ortszeit Untergrenze Bedeckung Gattung
total tief tief mittel hoch
So, 25.08. 8:00 - 0/8 0/8 - - -
So, 25.08. 2:00 - 0/8 0/8 - - -
Sa, 24.08. 20:00 - 0/8 0/8 - - -
Sa, 24.08. 14:00 - 0/8 0/8 - - -
Sa, 24.08. 8:00 9000 m 1/8 0/8 - - -
Sa, 24.08. 2:00 9000 m 7/8 0/8 - - -
Fr, 23.08. 20:00 9000 m 8/8 0/8 - - -
Fr, 23.08. 14:00 8400 m 8/8 0/8 - - -
Ortszeit Bedeckungsgrad in Achtel und Wolkenuntergrenze
So, 25.08. 13:00 5(1500m)
So, 25.08. 12:50 5(1500m)
So, 25.08. 12:40 7(1500m)
So, 25.08. 12:30 7(1500m)
So, 25.08. 12:20 7(1500m)
So, 25.08. 12:10 6(1500m)
So, 25.08. 12:00 2(1500m)
So, 25.08. 11:30 keine Wolken
So, 25.08. 11:00 keine Wolken
So, 25.08. 10:30 keine Wolken
So, 25.08. 10:00 keine Wolken
Ortszeit Luftdruck NN (hPa) Tendenz (hPa in 3 Std.)
So, 25.08. 8:00 1022 - 0,1
So, 25.08. 2:00 1022 - 0,4
Sa, 24.08. 20:00 1022 - 1,0
Sa, 24.08. 14:00 1024 - 1,1
Sa, 24.08. 8:00 1025 - 0,5
Sa, 24.08. 2:00 1026 0,0
Fr, 23.08. 20:00 1026 - 0,3
Fr, 23.08. 14:00 1026 - 0,3
Ortszeit Luftdruck NN (hPa) Tendenz (hPa in 3 Std.)
So, 25.08. 13:00 1021 - 0,7
So, 25.08. 12:50 1021 keine Meldung
So, 25.08. 12:40 1021 keine Meldung
So, 25.08. 12:30 1021 - 0,6
So, 25.08. 12:20 1021 keine Meldung
So, 25.08. 12:10 1021 keine Meldung
So, 25.08. 12:00 1022 - 0,2
So, 25.08. 11:30 1022 + 0,1
So, 25.08. 11:00 1022 + 0,3
So, 25.08. 10:30 1022 + 0,4
So, 25.08. 10:00 1022 + 0,3
Ortszeit Schneehöhe (cm)
So, 25.08. 8:00 -
So, 25.08. 2:00 -
Sa, 24.08. 20:00 -
Sa, 24.08. 14:00 -
Sa, 24.08. 8:00 -
Sa, 24.08. 2:00 -
Fr, 23.08. 20:00 -
Fr, 23.08. 14:00 -
Ortszeit Schneehöhe (cm)
So, 25.08. 13:00 -
So, 25.08. 12:50 -
So, 25.08. 12:40 -
So, 25.08. 12:30 -
So, 25.08. 12:20 -
So, 25.08. 12:10 -
So, 25.08. 12:00 -
So, 25.08. 11:30 -
So, 25.08. 11:00 -
So, 25.08. 10:30 -
So, 25.08. 10:00 -
Link zu dieser Seite / Seite empfehlen

Das Wetter in ...